KBWG/BWG METAR and TAF weather

Enter ICAO airport designator
Station Type Date Time Source
KBWG METAR 2021/01/17 18:53 UTC NOAA

KBWG 171853Z AUTO 26007KT 10SM FEW026 BKN039 OVC047 05/M01 A2981 RMK AO2 SLP098 T00501011


Station Type Date Time Source
KBWG Decoded METAR 2021/01/17 18:53 UTC NOAA

BOWLING GREEN-WARREN CO RGNL, KY, United States (KBWG) 36-58N 086-25W 161M
Jan 17, 2021 - 01:53 PM EST / 2021.01.17 1853 UTC
Wind: from the W (260 degrees) at 8 MPH (7 KT):0
Visibility: 10 mile(s):0
Sky conditions: overcast
Temperature: 41.0 F (5.0 C)
Dew Point: 30.0 F (-1.1 C)
Relative Humidity: 64%
Pressure (altimeter): 29.81 in. Hg (1009 hPa)
ob: KBWG 171853Z AUTO 26007KT 10SM FEW026 BKN039 OVC047 05/M01 A2981 RMK AO2 SLP098 T00501011
cycle: 19

Station Type Date Time Source
KBWG TAF 2021/01/17 18:34 UTC NOAA

TAF KBWG 171732Z 1718/1818 23012G20KT P6SM BKN025
TEMPO 1718/1722 SCT025
FM180000 26007KT P6SM BKN050
FM180400 26005KT P6SM OVC025 PROB30 1804/1808 4SM -SN BR OVC015
FM181700 25010KT P6SM OVC025

Example: see airport list